createdAt,value
2022-09-12T00:01:28.672Z,6.90
2022-09-12T00:04:00.677Z,7.20
2022-09-12T00:06:30.927Z,7.32
2022-09-12T00:09:02.967Z,6.78
2022-09-12T00:11:31.551Z,7.38
2022-09-12T00:14:02.110Z,7.47
2022-09-12T00:16:34.490Z,7.88
2022-09-12T00:19:03.906Z,7.60
2022-09-12T00:21:34.358Z,8.30
2022-09-12T00:24:03.130Z,8.10
2022-09-12T00:26:31.823Z,7.47
2022-09-12T00:29:00.342Z,8.32
2022-09-12T00:31:29.038Z,8.27
2022-09-12T00:34:01.839Z,8.07
2022-09-12T00:36:31.276Z,9.18
2022-09-12T00:38:59.895Z,8.50
2022-09-12T00:41:31.370Z,9.18
2022-09-12T00:44:02.513Z,9.13
2022-09-12T00:46:37.291Z,8.60
2022-09-12T00:49:13.316Z,9.30
2022-09-12T00:51:44.741Z,8.67
2022-09-12T00:54:18.279Z,9.02
2022-09-12T00:56:48.218Z,8.75
2022-09-12T00:59:20.174Z,8.77
2022-09-12T01:01:51.506Z,8.95
2022-09-12T01:04:23.855Z,8.77
2022-09-12T01:06:53.293Z,9.88
2022-09-12T01:09:23.952Z,9.20
2022-09-12T01:11:55.439Z,8.63
2022-09-12T01:14:24.018Z,8.73
2022-09-12T01:16:52.806Z,9.13
2022-09-12T01:19:49.429Z,9.60
2022-09-12T01:22:35.120Z,9.65
2022-09-12T01:25:12.609Z,9.47
2022-09-12T01:27:51.919Z,8.53
2022-09-12T01:30:25.048Z,9.57
2022-09-12T01:33:06.939Z,8.47
2022-09-12T01:35:45.518Z,9.60
2022-09-12T01:38:29.149Z,9.53
2022-09-12T01:41:04.412Z,9.57
2022-09-12T01:43:38.077Z,9.27
2022-09-12T01:46:14.336Z,10.53
2022-09-12T01:48:49.079Z,10.53
2022-09-12T01:51:23.003Z,9.27
2022-09-12T01:53:55.710Z,9.43
2022-09-12T01:56:26.979Z,9.63
2022-09-12T01:59:00.165Z,9.33
2022-09-12T02:01:33.957Z,10.23
2022-09-12T02:04:09.075Z,10.20
2022-09-12T02:06:45.022Z,10.23
2022-09-12T02:09:20.357Z,9.77
2022-09-12T02:11:52.669Z,10.20
2022-09-12T02:14:24.237Z,10.90
2022-09-12T02:16:58.863Z,10.50
2022-09-12T02:19:32.185Z,10.70
2022-09-12T02:22:03.167Z,10.43
2022-09-12T02:24:35.007Z,10.03
2022-09-12T02:27:09.406Z,10.93
2022-09-12T02:29:38.132Z,10.80
2022-09-12T02:32:16.029Z,11.03
2022-09-12T02:34:52.499Z,11.05
2022-09-12T02:37:27.549Z,10.73
2022-09-12T02:39:57.199Z,11.30
2022-09-12T02:42:26.455Z,11.40
2022-09-12T02:44:57.337Z,11.80
2022-09-12T02:47:32.275Z,12.77
2022-09-12T02:50:00.879Z,11.20
2022-09-12T02:52:30.581Z,11.03
2022-09-12T02:55:00.685Z,10.87
2022-09-12T02:57:29.023Z,11.90
2022-09-12T03:00:02.320Z,11.70
2022-09-12T03:02:53.086Z,11.27
2022-09-12T03:05:26.329Z,11.48
2022-09-12T03:08:22.552Z,11.33
2022-09-12T03:11:08.396Z,11.93
2022-09-12T03:13:46.276Z,11.27
2022-09-12T03:16:19.467Z,10.70
2022-09-12T03:18:56.980Z,10.73
2022-09-12T03:21:29.901Z,11.17
2022-09-12T03:24:09.457Z,11.33
2022-09-12T03:26:43.765Z,11.27
2022-09-12T03:29:13.783Z,10.37
2022-09-12T03:31:50.546Z,10.37
2022-09-12T03:34:20.918Z,10.47
2022-09-12T03:36:50.038Z,10.50
2022-09-12T03:39:18.459Z,11.67
2022-09-12T03:41:46.720Z,11.20
2022-09-12T03:44:14.976Z,11.57
2022-09-12T03:46:43.257Z,12.70
2022-09-12T03:49:12.050Z,12.00
2022-09-12T03:51:43.109Z,12.63
2022-09-12T03:54:12.654Z,12.97
2022-09-12T03:56:41.667Z,11.70
2022-09-12T03:59:10.154Z,11.53
2022-09-12T04:01:38.884Z,10.48
2022-09-12T04:04:07.222Z,10.57
2022-09-12T04:06:35.681Z,11.97
2022-09-12T04:09:05.529Z,11.17
2022-09-12T04:11:35.963Z,11.90
2022-09-12T04:14:04.339Z,11.73
2022-09-12T04:16:33.461Z,11.97
2022-09-12T04:19:01.878Z,11.93
2022-09-12T04:21:30.989Z,11.40
2022-09-12T04:23:59.308Z,11.67
2022-09-12T04:26:29.901Z,11.20
2022-09-12T04:28:58.377Z,11.10
2022-09-12T04:31:27.312Z,12.37
2022-09-12T04:33:56.453Z,11.43
2022-09-12T04:36:25.580Z,11.87
2022-09-12T04:38:53.899Z,11.70
2022-09-12T04:41:24.403Z,11.73
2022-09-12T04:43:58.314Z,10.97
2022-09-12T04:46:27.573Z,12.90
2022-09-12T04:48:57.000Z,12.30
2022-09-12T04:51:28.433Z,11.00
2022-09-12T04:53:59.074Z,11.60
2022-09-12T04:56:28.971Z,10.70
2022-09-12T04:59:01.469Z,11.90
2022-09-12T05:01:31.257Z,11.60
2022-09-12T05:04:02.199Z,11.30
2022-09-12T05:06:32.642Z,12.30
2022-09-12T05:09:02.201Z,11.30
2022-09-12T05:11:53.081Z,12.57
2022-09-12T05:14:22.673Z,11.47
2022-09-12T05:16:51.128Z,12.93
2022-09-12T05:19:19.448Z,13.90
2022-09-12T05:21:47.747Z,12.80
2022-09-12T05:24:16.010Z,14.17
2022-09-12T05:26:44.356Z,12.53
2022-09-12T05:29:13.273Z,12.33
2022-09-12T05:31:43.082Z,13.07
2022-09-12T05:34:11.618Z,13.67
2022-09-12T05:36:39.905Z,14.63
2022-09-12T05:39:08.491Z,13.93
2022-09-12T05:41:37.145Z,13.27
2022-09-12T05:44:07.772Z,13.07
2022-09-12T05:46:39.189Z,14.33
2022-09-12T05:49:11.429Z,12.40
2022-09-12T05:51:42.448Z,13.70
2022-09-12T05:54:12.121Z,12.93
2022-09-12T05:56:42.126Z,13.33
2022-09-12T05:59:13.585Z,13.43
2022-09-12T06:01:42.109Z,14.10
2022-09-12T06:04:12.263Z,13.93
2022-09-12T06:06:43.536Z,13.60
2022-09-12T06:09:12.980Z,13.87
2022-09-12T06:11:42.072Z,13.70
2022-09-12T06:14:11.641Z,15.07
2022-09-12T06:16:40.726Z,13.47
2022-09-12T06:19:19.368Z,14.27
2022-09-12T06:21:48.420Z,14.30
2022-09-12T06:24:17.666Z,12.93
2022-09-12T06:26:46.994Z,13.00
2022-09-12T06:29:15.573Z,11.93
2022-09-12T06:31:44.861Z,12.18
2022-09-12T06:34:16.894Z,12.32
2022-09-12T06:36:47.383Z,12.02
2022-09-12T06:39:18.575Z,11.55
2022-09-12T06:41:47.405Z,11.35
2022-09-12T06:44:18.005Z,11.05
2022-09-12T06:46:46.325Z,11.57
2022-09-12T06:49:17.543Z,10.73
2022-09-12T06:51:45.879Z,11.37
2022-09-12T06:54:15.517Z,9.38
2022-09-12T06:56:44.720Z,9.77
2022-09-12T06:59:13.227Z,9.27
2022-09-12T07:01:42.363Z,9.38
2022-09-12T07:04:11.004Z,10.07
2022-09-12T07:06:42.183Z,9.40
2022-09-12T07:09:13.599Z,9.32
2022-09-12T07:11:43.521Z,9.52
2022-09-12T07:14:14.592Z,9.35
2022-09-12T07:16:43.286Z,8.52
2022-09-12T07:19:12.253Z,8.13
2022-09-12T07:21:42.557Z,7.22
2022-09-12T07:24:11.799Z,7.03
2022-09-12T07:26:42.203Z,7.60
2022-09-12T07:29:35.949Z,6.80
2022-09-12T07:32:05.648Z,7.43
2022-09-12T07:34:34.271Z,7.07
2022-09-12T07:37:04.204Z,7.47
2022-09-12T07:39:32.500Z,6.68
2022-09-12T07:42:01.542Z,6.25
2022-09-12T07:44:30.283Z,5.95
2022-09-12T07:46:59.209Z,6.15
2022-09-12T07:49:27.496Z,6.65
2022-09-12T07:51:55.879Z,6.10
2022-09-12T07:54:25.730Z,5.93
2022-09-12T07:56:54.005Z,5.32
2022-09-12T07:59:48.450Z,5.43
2022-09-12T08:02:17.136Z,6.60
2022-09-12T08:10:00.481Z,6.07
2022-09-12T08:12:29.381Z,6.55
2022-09-12T08:14:57.772Z,7.00
2022-09-12T08:17:26.132Z,7.00
2022-09-12T08:19:54.433Z,8.10
2022-09-12T08:22:22.911Z,7.28
2022-09-12T08:24:51.367Z,7.65
2022-09-12T08:27:21.160Z,8.30
2022-09-12T08:29:49.708Z,7.18
2022-09-12T08:32:18.032Z,7.10
2022-09-12T08:34:48.534Z,6.80
2022-09-12T08:37:16.852Z,6.40
2022-09-12T08:39:45.405Z,6.53
2022-09-12T08:42:24.474Z,5.43
2022-09-12T08:45:06.515Z,5.43
2022-09-12T08:47:37.713Z,5.28
2022-09-12T08:50:15.508Z,5.10
2022-09-12T08:52:51.991Z,5.15
2022-09-12T08:55:32.329Z,5.05
2022-09-12T08:58:03.295Z,4.85
2022-09-12T09:00:50.337Z,4.78
2022-09-12T09:03:33.788Z,4.68
2022-09-12T09:06:09.171Z,4.55
2022-09-12T09:08:48.122Z,4.60
2022-09-12T09:11:33.680Z,4.82
2022-09-12T09:14:36.748Z,4.65
2022-09-12T09:17:10.241Z,3.78
2022-09-12T09:19:48.803Z,4.13
2022-09-12T09:22:28.980Z,4.47
2022-09-12T09:25:02.699Z,4.30
2022-09-12T09:27:40.891Z,3.22
2022-09-12T09:30:16.496Z,3.78
2022-09-12T09:32:48.113Z,2.97
2022-09-12T09:35:20.027Z,3.08
2022-09-12T09:38:00.255Z,3.25
2022-09-12T09:40:37.301Z,3.10
2022-09-12T09:43:14.116Z,3.00
2022-09-12T09:45:47.310Z,3.05
2022-09-12T09:48:19.725Z,3.00
2022-09-12T09:50:50.681Z,2.40
2022-09-12T09:53:38.424Z,3.40
2022-09-12T09:56:12.819Z,2.50
2022-09-12T09:58:42.269Z,2.47
2022-09-12T10:01:18.145Z,2.25
2022-09-12T10:03:51.616Z,2.10
2022-09-12T10:06:27.023Z,2.08
2022-09-12T10:09:08.626Z,2.33
2022-09-12T10:11:42.563Z,2.20
2022-09-12T10:14:35.230Z,2.10
2022-09-12T10:17:23.711Z,2.42
2022-09-12T10:20:17.387Z,1.85
2022-09-12T10:22:42.098Z,1.98
2022-09-12T10:25:16.679Z,1.88
2022-09-12T10:27:44.991Z,2.10
2022-09-12T10:30:19.565Z,2.17
2022-09-12T10:32:51.853Z,1.80
2022-09-12T10:35:22.359Z,1.40
2022-09-12T10:37:56.718Z,1.88
2022-09-12T10:40:27.736Z,1.70
2022-09-12T10:42:57.791Z,2.13
2022-09-12T10:45:30.209Z,1.90
2022-09-12T10:48:06.784Z,2.25
2022-09-12T10:50:40.601Z,1.73
2022-09-12T10:53:20.337Z,2.00
2022-09-12T10:56:09.095Z,1.95
2022-09-12T10:58:49.626Z,2.33
2022-09-12T11:01:31.785Z,1.92
2022-09-12T11:04:18.956Z,2.00
2022-09-12T11:06:58.642Z,2.13
2022-09-12T11:09:36.127Z,2.03
2022-09-12T11:12:13.081Z,3.08
2022-09-12T11:14:58.250Z,1.98
2022-09-12T11:17:37.268Z,2.20
2022-09-12T11:20:24.179Z,2.15
2022-09-12T11:23:15.356Z,2.00
2022-09-12T11:25:50.448Z,2.03
2022-09-12T11:28:30.067Z,2.17
2022-09-12T11:31:24.748Z,1.63
2022-09-12T11:33:56.813Z,2.30
2022-09-12T11:36:35.284Z,2.60
2022-09-12T11:39:13.332Z,2.05
2022-09-12T11:41:44.661Z,2.40
2022-09-12T11:44:18.538Z,2.17
2022-09-12T11:46:51.723Z,2.38
2022-09-12T11:49:30.495Z,2.13
2022-09-12T11:52:07.012Z,2.13
2022-09-12T11:54:40.543Z,2.10
2022-09-12T11:57:14.726Z,1.75
2022-09-12T11:59:50.106Z,1.92
2022-09-12T12:02:28.272Z,1.70
2022-09-12T12:05:20.710Z,2.65
2022-09-12T12:07:54.563Z,2.15
2022-09-12T12:10:32.412Z,2.22
2022-09-12T12:13:03.402Z,2.67
2022-09-12T12:15:33.099Z,1.77
2022-09-12T12:18:03.590Z,1.85
2022-09-12T12:20:32.497Z,1.88
2022-09-12T12:23:02.255Z,2.30
2022-09-12T12:25:43.115Z,2.20
2022-09-12T12:28:11.593Z,2.50
2022-09-12T12:31:02.562Z,2.00
2022-09-12T12:34:27.585Z,2.03
2022-09-12T12:36:56.032Z,1.80
2022-09-12T12:40:04.147Z,1.67
2022-09-12T12:43:21.167Z,1.88
2022-09-12T12:46:10.807Z,2.40
2022-09-12T12:48:58.956Z,2.05
2022-09-12T12:51:44.498Z,2.20
2022-09-12T12:54:47.811Z,2.10
2022-09-12T12:57:20.873Z,2.22
2022-09-12T12:59:53.013Z,1.75
2022-09-12T13:02:31.866Z,2.08
2022-09-12T13:05:01.684Z,1.90
2022-09-12T13:07:34.782Z,1.80
2022-09-12T13:10:04.707Z,1.75
2022-09-12T13:12:36.695Z,1.60
2022-09-12T13:15:28.189Z,1.80
2022-09-12T13:18:02.488Z,2.30
2022-09-12T13:20:34.872Z,1.65
2022-09-12T13:23:03.319Z,1.80
2022-09-12T13:25:33.192Z,2.17
2022-09-12T13:28:08.056Z,1.80
2022-09-12T13:30:37.862Z,1.60
2022-09-12T13:33:20.692Z,1.90
2022-09-12T13:36:14.716Z,2.28
2022-09-12T13:38:54.441Z,1.70
2022-09-12T13:41:40.402Z,1.70
2022-09-12T13:44:13.566Z,2.00
2022-09-12T13:46:42.579Z,2.08
2022-09-12T13:49:22.103Z,1.60
2022-09-12T13:52:01.931Z,2.25
2022-09-12T13:54:31.965Z,2.17
2022-09-12T13:57:00.619Z,1.42
2022-09-12T13:59:28.865Z,1.60
2022-09-12T14:01:57.256Z,1.60
2022-09-12T14:04:45.361Z,1.80
2022-09-12T14:07:17.364Z,1.88
2022-09-12T14:09:47.557Z,2.20
2022-09-12T14:12:26.601Z,2.20
2022-09-12T14:14:55.141Z,1.90
2022-09-12T14:17:29.857Z,1.60
2022-09-12T14:20:02.099Z,1.95
2022-09-12T14:22:31.270Z,1.65
2022-09-12T14:25:00.973Z,1.90
2022-09-12T14:27:34.196Z,1.83
2022-09-12T14:30:07.674Z,1.83
2022-09-12T14:32:36.839Z,1.90
2022-09-12T14:35:18.247Z,1.60
2022-09-12T14:37:49.518Z,1.90
2022-09-12T14:40:20.449Z,1.80
2022-09-12T14:42:50.670Z,1.63
2022-09-12T14:45:25.357Z,1.83
2022-09-12T14:47:54.900Z,1.70
2022-09-12T14:50:27.816Z,1.80
2022-09-12T14:53:07.953Z,1.70
2022-09-12T14:55:44.013Z,1.55
2022-09-12T14:58:17.959Z,1.80
2022-09-12T15:00:57.916Z,1.60
2022-09-12T15:03:29.381Z,1.50
2022-09-12T15:06:00.262Z,1.67
2022-09-12T15:08:28.743Z,1.30
2022-09-12T15:10:57.254Z,1.25
2022-09-12T15:13:28.018Z,1.27
2022-09-12T15:15:58.262Z,1.30
2022-09-12T15:18:28.423Z,1.52
2022-09-12T15:21:02.525Z,1.40
2022-09-12T15:23:34.208Z,1.50
2022-09-12T15:26:03.035Z,1.35
2022-09-12T15:28:32.596Z,1.50
2022-09-12T15:31:07.147Z,1.40
2022-09-12T15:33:35.662Z,1.40
2022-09-12T15:36:13.004Z,1.25
2022-09-12T15:38:41.359Z,1.52
2022-09-12T15:41:14.080Z,1.30
2022-09-12T15:43:42.354Z,1.60
2022-09-12T15:46:12.608Z,1.40
2022-09-12T15:48:41.331Z,1.60
2022-09-12T15:51:15.579Z,1.60
2022-09-12T15:53:45.350Z,1.63
2022-09-12T15:56:14.044Z,2.00
2022-09-12T15:58:57.136Z,1.60
2022-09-12T16:01:27.149Z,2.00
2022-09-12T16:03:55.656Z,1.40
2022-09-12T16:06:25.509Z,1.50
2022-09-12T16:08:53.892Z,1.88
2022-09-12T16:11:25.050Z,1.98
2022-09-12T16:13:54.067Z,1.50
2022-09-12T16:16:22.407Z,1.52
2022-09-12T16:18:50.771Z,1.25
2022-09-12T16:21:19.532Z,1.83
2022-09-12T16:23:49.975Z,1.50
2022-09-12T16:26:18.735Z,1.35
2022-09-12T16:28:47.263Z,1.20
2022-09-12T16:31:17.166Z,1.52
2022-09-12T16:33:45.526Z,1.50
2022-09-12T16:36:15.634Z,1.40
2022-09-12T16:38:45.019Z,1.40
2022-09-12T16:41:15.902Z,1.30
2022-09-12T16:43:45.695Z,1.23
2022-09-12T16:46:16.012Z,1.40
2022-09-12T16:48:51.584Z,1.27
2022-09-12T16:51:22.451Z,1.50
2022-09-12T16:53:51.329Z,1.33
2022-09-12T16:56:21.095Z,1.08
2022-09-12T16:58:49.889Z,1.27
2022-09-12T17:01:20.334Z,2.00
2022-09-12T17:03:49.137Z,1.27
2022-09-12T17:06:19.922Z,1.40
2022-09-12T17:08:51.099Z,1.40
2022-09-12T17:11:22.646Z,1.40
2022-09-12T17:14:04.542Z,1.17
2022-09-12T17:16:34.236Z,1.17
2022-09-12T17:19:02.608Z,1.58
2022-09-12T17:21:30.912Z,1.25
2022-09-12T17:23:59.598Z,1.55
2022-09-12T17:26:29.402Z,1.40
2022-09-12T17:28:57.851Z,1.40
2022-09-12T17:31:26.712Z,1.52
2022-09-12T17:33:58.588Z,1.45
2022-09-12T17:36:27.908Z,1.45
2022-09-12T17:38:56.482Z,1.58
2022-09-12T17:41:27.417Z,1.40
2022-09-12T17:43:58.361Z,1.50
2022-09-12T17:46:28.548Z,1.55
2022-09-12T17:48:58.782Z,2.08
2022-09-12T17:51:29.109Z,1.30
2022-09-12T17:54:00.180Z,1.20
2022-09-12T17:56:30.946Z,1.80
2022-09-12T17:59:01.502Z,1.58
2022-09-12T18:01:48.682Z,1.60
2022-09-12T18:04:19.973Z,2.08
2022-09-12T18:06:49.281Z,1.70
2022-09-12T18:09:20.131Z,1.58
2022-09-12T18:11:49.293Z,1.70
2022-09-12T18:14:20.519Z,1.60
2022-09-12T18:16:49.484Z,1.67
2022-09-12T18:19:18.361Z,1.83
2022-09-12T18:21:47.062Z,1.60
2022-09-12T18:24:15.423Z,2.50
2022-09-12T18:26:44.999Z,2.00
2022-09-12T18:29:16.989Z,2.08
2022-09-12T18:31:47.812Z,2.30
2022-09-12T18:34:17.212Z,2.30
2022-09-12T18:36:47.377Z,2.08
2022-09-12T18:39:16.297Z,2.58
2022-09-12T18:41:44.955Z,2.13
2022-09-12T18:44:16.061Z,2.45
2022-09-12T18:46:44.427Z,2.40
2022-09-12T18:49:14.261Z,1.90
2022-09-12T18:51:42.707Z,2.00
2022-09-12T18:54:14.200Z,2.78
2022-09-12T18:56:44.077Z,2.30
2022-09-12T18:59:15.032Z,2.63
2022-09-12T19:01:44.472Z,2.38
2022-09-12T19:04:16.531Z,2.47
2022-09-12T19:06:46.798Z,2.65
2022-09-12T19:09:16.944Z,2.65
2022-09-12T19:11:50.046Z,2.47
2022-09-12T19:14:20.072Z,2.50
2022-09-12T19:16:48.498Z,2.65
2022-09-12T19:19:18.439Z,2.30
2022-09-12T19:21:47.399Z,2.72
2022-09-12T19:24:16.693Z,2.50
2022-09-12T19:26:45.186Z,3.47
2022-09-12T19:29:14.719Z,2.30
2022-09-12T19:31:43.348Z,2.67
2022-09-12T19:34:13.316Z,2.72
2022-09-12T19:36:45.923Z,2.92
2022-09-12T19:39:16.520Z,3.15
2022-09-12T19:41:45.500Z,3.00
2022-09-12T19:44:14.151Z,2.85
2022-09-12T19:46:42.711Z,2.55
2022-09-12T19:49:13.015Z,3.03
2022-09-12T19:51:43.987Z,3.30
2022-09-12T19:54:14.868Z,2.90
2022-09-12T19:56:43.534Z,2.83
2022-09-12T19:59:12.344Z,3.45
2022-09-12T20:01:40.836Z,2.60
2022-09-12T20:04:09.269Z,3.30
2022-09-12T20:06:37.583Z,2.97
2022-09-12T20:09:07.363Z,3.20
2022-09-12T20:11:35.748Z,3.50
2022-09-12T20:14:04.177Z,2.70
2022-09-12T20:16:33.638Z,3.42
2022-09-12T20:19:06.049Z,3.40
2022-09-12T20:21:36.112Z,3.40
2022-09-12T20:24:08.739Z,3.40
2022-09-12T20:26:37.508Z,3.08
2022-09-12T20:29:07.057Z,3.33
2022-09-12T20:31:36.144Z,3.70
2022-09-12T20:34:04.900Z,3.20
2022-09-12T20:36:33.893Z,2.92
2022-09-12T20:39:03.193Z,3.40
2022-09-12T20:41:35.545Z,3.53
2022-09-12T20:44:04.299Z,3.20
2022-09-12T20:46:33.162Z,2.95
2022-09-12T20:49:01.569Z,3.40
2022-09-12T20:51:30.582Z,3.50
2022-09-12T20:54:00.333Z,3.10
2022-09-12T20:56:29.637Z,3.20
2022-09-12T20:59:00.677Z,2.90
2022-09-12T21:01:31.411Z,3.42
2022-09-12T21:04:00.793Z,3.20
2022-09-12T21:06:29.492Z,3.03
2022-09-12T21:09:00.777Z,3.40
2022-09-12T21:11:29.963Z,3.50
2022-09-12T21:13:59.808Z,3.33
2022-09-12T21:16:28.576Z,3.42
2022-09-12T21:18:58.871Z,3.50
2022-09-12T21:21:28.067Z,3.40
2022-09-12T21:23:59.206Z,3.08
2022-09-12T21:26:28.006Z,3.63
2022-09-12T21:28:56.471Z,2.97
2022-09-12T21:31:27.016Z,2.60
2022-09-12T21:33:56.090Z,3.00
2022-09-12T21:36:25.379Z,2.80
2022-09-12T21:38:53.975Z,2.92
2022-09-12T21:41:22.330Z,3.13
2022-09-12T21:43:50.783Z,3.00
2022-09-12T21:46:19.594Z,3.05
2022-09-12T21:48:49.293Z,3.65
2022-09-12T21:51:18.205Z,3.47
2022-09-12T21:53:46.572Z,3.13
2022-09-12T21:56:14.971Z,2.75
2022-09-12T21:58:43.332Z,3.42
2022-09-12T22:01:13.133Z,3.28
2022-09-12T22:03:44.753Z,2.70
2022-09-12T22:06:16.391Z,2.63
2022-09-12T22:08:46.114Z,2.75
2022-09-12T22:11:15.060Z,2.90
2022-09-12T22:13:44.005Z,2.90
2022-09-12T22:16:12.861Z,2.50
2022-09-12T22:18:41.415Z,3.17
2022-09-12T22:21:13.036Z,3.03
2022-09-12T22:24:01.111Z,2.63
2022-09-12T22:26:30.117Z,2.55
2022-09-12T22:28:58.712Z,2.65
2022-09-12T22:31:28.189Z,2.67
2022-09-12T22:33:57.420Z,3.00
2022-09-12T22:36:30.516Z,2.95
2022-09-12T22:39:01.749Z,2.85
2022-09-12T22:41:30.204Z,2.55
2022-09-12T22:43:58.508Z,2.50
2022-09-12T22:46:27.596Z,2.63
2022-09-12T22:48:56.732Z,2.72
2022-09-12T22:51:25.101Z,2.70
2022-09-12T22:53:53.832Z,3.05
2022-09-12T22:56:23.856Z,3.95
2022-09-12T22:58:52.834Z,2.90
2022-09-12T23:01:21.417Z,3.35
2022-09-12T23:03:49.848Z,3.30
2022-09-12T23:06:19.027Z,2.88
2022-09-12T23:08:47.326Z,2.88
2022-09-12T23:11:17.503Z,3.30
2022-09-12T23:13:48.684Z,3.03
2022-09-12T23:16:20.038Z,3.00
2022-09-12T23:18:49.148Z,3.00
2022-09-12T23:21:21.253Z,3.08
2022-09-12T23:23:49.841Z,2.92
2022-09-12T23:26:20.477Z,2.75
2022-09-12T23:28:52.852Z,2.78
2022-09-12T23:31:22.022Z,2.97
2022-09-12T23:33:51.124Z,2.70
2022-09-12T23:36:19.569Z,2.72
2022-09-12T23:38:48.120Z,2.80
2022-09-12T23:41:18.236Z,2.95
2022-09-12T23:43:47.254Z,2.60
2022-09-12T23:46:18.688Z,2.88
2022-09-12T23:48:46.978Z,2.53
2022-09-12T23:51:15.964Z,2.90
2022-09-12T23:53:44.416Z,2.53
2022-09-12T23:56:14.966Z,2.97
2022-09-12T23:58:43.343Z,2.90
